< < Back
Terminal Aerodrome Forecast


Current Version              Previous Versions:   1  2  3  4  5  6  7  8  9  

Terminal Aerodrome Forecast

407
FTUS42 KILM 191100
TAFILM
TAF
KILM 191123Z 1912/2012 03012KT 4SM RA BR SCT025 BKN040 OVC080
     FM191330 02010KT 6SM -RA BR BKN007 OVC020
     FM191600 02012G22KT P6SM -RA BKN009 OVC020
     FM200400 03015G25KT 4SM -RA BR OVC007
     FM201000 02015G25KT P6SM BKN010=



Latest METAR

499
SAUS70 KWBC 191200 RRA
MTRILM
METAR KILM 191153Z AUTO 03016KT 3SM RA BR FEW008 BKN039 OVC110 12/11
A3003 RMK AO2 SLP169 P0017 60258 70325 T01220106 10122 20117
58007


USA.gov is the U.S. government's official web portal to all federal, state and local government web resources and services.